This is the latest recevied weather packets stored in our database for station/object GW1469. If no packets are shown the sender has not sent any weather packets the latest 10 day(s).
| Time | Temp. | Humidity | Pressure | Rain* | Wind** | Luminosity | Snow |
|---|---|---|---|---|---|---|---|
| 1777895323 | 5.56° C | 95% | 1025.3 hPa | 0 mm | - | - | - |
| 1777892430 | 5° C | 95% | 1025 hPa | 0 mm | - | - | - |
| 1777888488 | 5.56° C | 93% | 1025.3 hPa | 0 mm | - | - | - |
| 1777888097 | 5.56° C | 92% | 1025.7 hPa | 0 mm | - | - | - |
| 1777885574 | 5.56° C | 92% | 1025.7 hPa | 0 mm | - | - | - |
| 1777884141 | 5.56° C | 90% | 1026 hPa | 0 mm | - | - | - |
| 1777882695 | 5.56° C | 91% | 1025.7 hPa | 0 mm | - | - | - |
| 1777882336 | 5.56° C | 90% | 1025.7 hPa | 0 mm | - | - | - |
| 1777880176 | 5° C | 91% | 1026 hPa | 0 mm | - | - | - |
| 1777873000 | 5.56° C | 86% | 1026.7 hPa | 0 mm | - | - | - |
| 1777868671 | 5° C | 87% | 1026 hPa | 0 mm | - | - | - |
| 1777867604 | 5° C | 85% | 1026.4 hPa | 0 mm | - | - | - |
| 1777865772 | 5.56° C | 83% | 1026.4 hPa | 0 mm | - | - | - |
| 1777865436 | 5.56° C | 83% | 1026.4 hPa | 0 mm | - | - | - |
| 1777863254 | 6.67° C | 76% | 1026 hPa | 0 mm | - | - | - |
| 1777862540 | 6.67° C | 75% | 1026 hPa | 0 mm | - | - | - |
| 1777861827 | 7.22° C | 73% | 1026 hPa | 0 mm | - | - | - |
| 1777861114 | 7.22° C | 72% | 1025.7 hPa | 0 mm | - | - | - |
| 1777860380 | 7.78° C | 70% | 1026 hPa | 0 mm | - | - | - |
| 1777857134 | 9.44° C | 60% | 1025.3 hPa | 0 mm | - | - | - |
| 1777856078 | 10.56° C | 56% | 1025.3 hPa | 0 mm | - | - | - |
| 1777849972 | 16.11° C | 42% | 1025 hPa | 0 mm | - | - | - |
| 1777848143 | 16.67° C | 34% | 1025 hPa | 0 mm | - | - | - |
| 1777836981 | 17.78° C | 26% | 1027 hPa | 0 mm | - | - | - |
| 1777836643 | 16.67° C | 29% | 1027.4 hPa | 0 mm | - | - | - |
* Rain since midnight (hover to see other rain measurements)
** Current wind speed in m/s (hover to see current wind gust speed)